Latest Weather Observations for Applethorpe

IDQ60801

Issued at 5:02 pm EST Tuesday 9 February 2016 (issued every 30 minutes, with the page automatically refreshed every 10 minutes)

About weather observations | Map of weather stations | Latest weather observations for QLD | Other Formats
Station Details ID: 041175 Name: APPLETHORPE Lat: -28.62 Lon: 151.95 Height: 871.6 m
Data from the previous 72 hours. | See also: Recent months at Applethorpe
Date/Time
EST
Temp
°C
App
Temp
°C
Dew
Point
Rel
Hum
%
Delta-T
°C
Wind Press
QNH
hPa
Press
MSL
hPa
Rain
since 9 am
mm
Dir
 
Spd
km/h
Gust
km/h
Spd
kts
Gust
kts
09/05:00pm 22.2 19.1 10.4 47 6.7 ESE 17 32 9 17 1018.3 1013.7 0.0
09/04:30pm 22.5 19.4 11.5 49 6.4 ESE 19 33 10 18 1018.2 1013.6 0.0
09/04:00pm 23.6 21.7 11.9 47 6.9 ESE 13 28 7 15 1018.2 1013.6 0.0
09/03:30pm 23.2 20.7 12.4 50 6.4 ESE 17 33 9 18 1018.2 1013.6 0.0
09/03:00pm 23.8 21.8 12.7 49 6.6 SE 15 30 8 16 1018.3 1013.7 0.0
09/02:30pm 23.3 20.7 13.1 52 6.1 ESE 19 35 10 19 1018.7 1014.1 0.0
09/02:00pm 24.0 22.6 13.4 51 6.4 ESE 13 24 7 13 1018.8 1014.2 0.0
09/01:30pm 23.8 21.8 12.7 49 6.6 ESE 15 26 8 14 1019.0 1014.4 0.0
09/01:00pm 22.2 19.9 13.1 56 5.4 SE 17 32 9 17 1019.5 1014.9 0.0
09/12:30pm 22.4 20.1 13.0 55 5.6 ESE 17 30 9 16 1019.8 1015.2 0.0
09/12:00pm 22.8 20.7 12.5 52 6.1 ESE 15 28 8 15 1019.9 1015.3 0.0
09/11:30am 21.1 19.0 12.4 57 5.1 SE 15 30 8 16 1020.1 1015.5 0.0
09/11:00am 21.5 20.1 13.3 59 4.9 SE 13 30 7 16 1020.2 1015.6 0.0
09/10:30am 21.5 20.2 13.7 61 4.7 SE 13 26 7 14 1020.1 1015.5 0.0
09/10:00am 20.8 18.1 12.8 60 4.7 ESE 19 43 10 23 1019.9 1015.3 0.0
09/09:30am 20.3 18.5 13.4 64 4.1 ESE 15 33 8 18 1020.1 1015.5 0.0
09/09:00am 19.8 17.6 13.2 65 3.9 ESE 17 39 9 21 1020.1 1015.5 0.0
09/08:30am 19.4 18.0 13.3 68 3.6 ESE 13 30 7 16 1020.1 1015.5 0.0
09/08:00am 18.6 17.5 13.2 71 3.2 E 11 26 6 14 1019.8 1015.2 0.0
09/07:30am 18.5 17.2 13.6 73 2.9 ESE 13 24 7 13 1019.4 1014.8 0.0
09/07:00am 17.0 15.5 13.0 77 2.3 ESE 13 26 7 14 1019.2 1014.6 0.0
09/06:30am 16.6 14.8 13.2 80 2.0 ESE 15 24 8 13 1019.0 1014.4 0.0
09/06:00am 15.8 14.7 13.2 84 1.5 ESE 11 24 6 13 1018.9 1014.3 0.0
09/05:30am 15.2 15.5 13.5 89 1.0 ESE 4 11 2 6 1018.7 1014.1 0.0
09/05:00am 15.4 15.4 13.5 88 1.1 ESE 6 13 3 7 1018.5 1013.8 0.0
09/04:30am 15.3 15.2 13.4 88 1.1 ESE 6 17 3 9 1018.3 1013.7 0.0
09/04:00am 15.6 15.6 13.5 87 1.2 ESE 6 13 3 7 1018.2 1013.6 0.0
09/03:30am 15.9 15.4 13.9 88 1.2 ESE 9 17 5 9 1018.1 1013.5 0.0
09/03:00am 15.9 15.4 13.7 87 1.3 ESE 9 19 5 10 1018.1 1013.5 0.0
09/02:30am 15.8 14.9 13.8 88 1.2 ESE 11 19 6 10 1018.2 1013.6 0.0
09/02:00am 15.7 15.1 13.6 87 1.2 SE 9 20 5 11 1018.2 1013.6 0.0
09/01:30am 15.7 15.5 13.6 87 1.2 ESE 7 17 4 9 1018.5 1013.8 0.0
09/01:00am 16.1 15.5 13.4 84 1.6 SE 9 19 5 10 1018.8 1014.2 0.0
09/12:30am 16.5 16.4 14.0 85 1.5 ESE 7 15 4 8 1019.3 1014.7 0.0
09/12:00am 16.7 16.3 14.2 85 1.5 ESE 9 17 5 9 1019.7 1015.1 0.0
 
Date/Time
EST
Temp
°C
App
Temp
°C
Dew
Point
Rel
Hum
%
Delta-T
°C
Wind Press
QNH
hPa
Press
MSL
hPa
Rain
since 9 am
mm
Dir
 
Spd
km/h
Gust
km/h
Spd
kts
Gust
kts
08/11:30pm 16.8 16.5 14.3 85 1.5 ESE 9 20 5 11 1019.9 1015.3 0.0
08/11:00pm 17.3 16.8 14.8 85 1.5 ESE 11 24 6 13 1020.2 1015.6 0.0
08/10:30pm 17.6 17.9 15.1 85 1.5 ESE 7 17 4 9 1020.2 1015.6 0.0
08/10:00pm 18.0 18.8 15.9 87 1.3 E 6 13 3 7 1020.2 1015.6 0.0
08/09:30pm 18.1 18.9 15.8 86 1.4 E 6 11 3 6 1020.3 1015.7 0.0
08/09:00pm 18.4 19.0 15.8 85 1.6 E 7 13 4 7 1020.0 1015.4 0.0
08/08:30pm 18.6 19.5 16.2 86 1.5 E 6 13 3 7 1019.8 1015.2 0.0
08/08:00pm 18.7 19.5 16.3 86 1.5 E 7 11 4 6 1019.3 1014.7 0.0
08/07:30pm 18.8 19.4 15.4 80 2.1 ESE 6 9 3 5 1018.9 1014.3 0.0
08/07:00pm 19.4 19.9 15.0 75 2.7 E 6 9 3 5 1018.5 1013.8 0.0
08/06:30pm 20.7 20.2 13.9 65 4.1 ESE 9 17 5 9 1018.1 1013.5 0.0
08/06:00pm 22.1 21.8 13.2 57 5.3 ESE 7 17 4 9 1017.8 1013.2 0.0
08/05:30pm 22.6 21.5 11.8 50 6.3 ESE 9 17 5 9 1017.5 1012.8 0.0
08/05:00pm 23.4 22.1 12.4 50 6.5 ESE 11 22 6 12 1017.5 1012.8 0.0
08/04:30pm 24.0 22.8 11.5 45 7.3 ESE 9 24 5 13 1017.5 1012.8 0.0
08/04:00pm 24.7 24.1 12.3 46 7.4 ESE 7 19 4 10 1017.5 1012.8 0.0
08/03:30pm 23.9 22.8 11.8 46 7.1 ESE 9 20 5 11 1017.7 1013.1 0.0
08/03:00pm 24.1 23.4 12.1 47 7.1 SE 7 19 4 10 1017.7 1013.1 0.0
08/02:30pm 24.2 23.4 12.8 49 6.8 ESE 9 20 5 11 1017.8 1013.2 0.0
08/02:00pm 23.8 22.2 12.7 49 6.6 ESE 13 24 7 13 1018.0 1013.4 0.0
08/01:30pm 24.1 23.2 12.7 49 6.8 ESE 9 24 5 13 1018.2 1013.6 0.0
08/01:00pm 23.7 22.5 12.8 50 6.5 ESE 11 19 6 10 1018.5 1013.8 0.0
08/12:30pm 23.2 22.1 13.0 52 6.1 E 11 24 6 13 1018.6 1014.0 0.0
08/12:00pm 23.5 22.7 13.0 51 6.3 E 9 19 5 10 1018.9 1014.3 0.0
08/11:30am 23.2 24.4 18.3 74 3.2 E 9 19 5 10 1019.3 1014.7 0.0
08/11:00am 22.1 21.3 12.8 55 5.5 E 9 17 5 9 1019.7 1015.1 0.0
08/10:30am 22.0 21.3 13.3 57 5.2 E 9 19 5 10 1019.8 1015.2 0.0
08/10:00am 21.4 20.6 13.0 58 5.0 E 9 22 5 12 1019.9 1015.3 0.0
08/09:30am 20.9 19.1 12.0 56 5.2 ESE 13 19 7 10 1019.9 1015.3 0.0
08/09:00am 20.8 20.2 11.6 55 5.3 ESE 6 13 3 7 1019.8 1015.2 0.0
08/08:30am 19.8 19.0 11.8 60 4.6 ESE 7 15 4 8 1019.8 1015.2 0.0
08/08:00am 19.1 18.6 12.2 64 4.0 ESE 6 11 3 6 1019.8 1015.2 0.0
08/07:30am 17.6 16.2 11.0 65 3.7 SE 9 17 5 9 1019.7 1015.1 0.0
08/07:00am 16.2 15.6 11.8 75 2.5 SE 6 17 3 9 1019.3 1014.7 0.0
08/06:30am 15.2 14.6 11.6 79 2.0 SE 6 15 3 8 1019.0 1014.4 0.0
08/06:00am 14.2 14.0 11.7 85 1.4 ESE 4 13 2 7 1018.8 1014.2 0.0
08/05:30am 13.5 13.8 12.3 92 0.7 ESE 2 4 1 2 1018.3 1013.7 0.0
08/05:00am 13.7 13.7 12.5 92 0.7 ESE 4 9 2 5 1018.1 1013.5 0.0
08/04:30am 13.7 14.5 12.6 93 0.6 CALM 0 2 0 1 1018.2 1013.6 0.0
08/04:00am 14.2 14.3 12.8 91 0.8 ESE 4 9 2 5 1018.2 1013.6 0.0
08/03:30am 14.6 14.4 13.0 90 0.9 E 6 9 3 5 1018.3 1013.7 0.0
08/03:00am 15.1 15.1 13.6 91 0.9 E 6 15 3 8 1018.5 1013.8 0.0
08/02:30am 15.3 15.2 13.8 91 0.9 ESE 7 13 4 7 1018.5 1013.8 0.0
08/02:00am 15.8 15.7 13.8 88 1.2 ESE 7 19 4 10 1018.6 1014.0 0.0
08/01:30am 15.8 15.7 13.9 88 1.1 ESE 7 17 4 9 1018.8 1014.2 0.0
08/01:00am 16.0 15.2 14.1 88 1.1 ESE 11 19 6 10 1019.0 1014.4 0.0
08/12:30am 16.1 15.7 14.2 88 1.1 ESE 9 20 5 11 1019.3 1014.7 0.0
08/12:00am 16.2 16.4 14.7 91 0.9 ESE 7 17 4 9 1019.8 1015.2 0.0
 
Date/Time
EST
Temp
°C
App
Temp
°C
Dew
Point
Rel
Hum
%
Delta-T
°C
Wind Press
QNH
hPa
Press
MSL
hPa
Rain
since 9 am
mm
Dir
 
Spd
km/h
Gust
km/h
Spd
kts
Gust
kts
07/11:30pm 16.2 16.5 14.9 92 0.8 E 7 17 4 9 1019.7 1015.1 0.0
07/11:00pm 16.4 16.8 15.2 93 0.7 E 7 11 4 6 1019.8 1015.2 0.0
07/10:30pm 16.5 16.9 15.3 93 0.7 E 7 15 4 8 1019.8 1015.2 0.0
07/10:00pm 16.8 17.1 15.1 90 1.0 E 7 15 4 8 1019.5 1014.9 0.0
07/09:30pm 17.2 17.6 15.2 88 1.2 E 7 17 4 9 1019.4 1014.8 0.0
07/09:00pm 17.4 17.8 15.4 88 1.2 E 7 13 4 7 1019.4 1014.8 0.0
07/08:30pm 17.7 17.5 15.6 87 1.3 E 11 24 6 13 1018.9 1014.3 0.0
07/08:00pm 17.7 18.5 15.9 89 1.1 ENE 6 11 3 6 1018.7 1014.1 0.0
07/07:30pm 18.0 18.6 15.9 87 1.3 E 7 13 4 7 1018.3 1013.7 0.0
07/07:00pm 18.3 19.0 15.5 84 1.7 ENE 6 9 3 5 1018.0 1013.4 0.0
07/06:30pm 19.0 19.7 15.6 80 2.1 E 6 13 3 7 1017.7 1013.1 0.0
07/06:00pm 20.1 20.2 15.6 75 2.8 E 9 20 5 11 1017.4 1012.7 0.0
07/05:30pm 20.6 20.5 15.0 70 3.4 E 9 15 5 8 1017.2 1012.5 0.0
07/05:00pm 21.9 21.9 15.3 66 4.1 ENE 9 19 5 10 1016.8 1012.2 0.0
07/04:30pm 22.3 21.9 15.2 64 4.4 E 11 20 6 11 1016.7 1012.1 0.0
07/04:00pm 23.1 23.2 15.6 62 4.7 E 9 19 5 10 1016.5 1011.9 0.0
07/03:30pm 23.3 23.4 15.4 61 4.9 E 9 20 5 11 1016.5 1011.9 0.0
07/03:00pm 23.2 23.2 15.1 60 5.0 E 9 15 5 8 1016.7 1012.1 0.0
07/02:30pm 23.3 23.8 15.6 62 4.8 ENE 7 17 4 9 1016.9 1012.3 0.0
07/02:00pm 22.1 22.1 15.1 64 4.3 ENE 9 26 5 14 1017.0 1012.4 0.0
07/01:30pm 23.1 23.3 15.7 63 4.6 E 9 19 5 10 1017.0 1012.4 0.0
07/01:00pm 22.9 23.2 16.0 65 4.3 ENE 9 19 5 10 1017.4 1012.7 0.0
07/12:30pm 22.6 23.2 15.7 65 4.3 E 7 13 4 7 1017.5 1012.8 0.0
07/12:00pm 22.3 22.6 15.9 67 4.0 E 9 17 5 9 1017.6 1013.0 0.0
07/11:30am 21.3 21.0 14.4 64 4.2 E 9 17 5 9 1017.8 1013.2 0.0
07/11:00am 20.8 20.4 14.2 66 4.0 ESE 9 19 5 10 1018.1 1013.5 0.0
07/10:30am 20.5 20.1 14.0 66 3.9 ESE 9 19 5 10 1018.3 1013.7 0.0
07/10:00am 19.1 17.2 13.0 67 3.6 ESE 15 24 8 13 1018.3 1013.7 0.0
07/09:30am 18.8 18.0 13.0 69 3.4 ESE 9 15 5 8 1018.8 1014.2 0.0
07/09:00am 17.3 16.3 12.4 73 2.8 ESE 9 17 5 9 1018.5 1013.8 5.8
07/08:30am 17.2 16.7 12.5 74 2.7 ESE 7 15 4 8 1018.5 1013.8 5.8
07/08:00am 16.6 15.9 12.0 74 2.6 SE 7 19 4 10 1018.5 1013.8 5.8
07/07:30am 15.6 15.1 12.5 82 1.8 ESE 7 17 4 9 1017.8 1013.2 5.8
07/07:00am 15.3 14.1 12.7 84 1.5 ESE 11 24 6 13 1017.7 1013.1 5.8
07/06:30am 15.2 14.8 12.9 86 1.3 SE 7 20 4 11 1017.7 1013.1 5.8
07/06:00am 15.1 13.9 12.8 86 1.3 ESE 11 30 6 16 1017.2 1012.5 5.8
07/05:30am 15.2 14.8 13.1 87 1.2 SE 7 13 4 7 1017.3 1012.6 5.8
07/05:00am 15.3 15.0 13.4 88 1.1 ESE 7 19 4 10 1016.5 1011.9 5.8
07/04:30am 15.3 14.4 13.8 91 0.9 ESE 11 22 6 12 1015.8 1011.2 5.8
07/04:00am 15.4 14.8 13.5 88 1.1 ESE 9 17 5 9 1016.3 1011.6 5.8
07/03:30am 15.6 15.1 13.7 88 1.1 ESE 9 19 5 10 1016.2 1011.5 5.8
07/03:00am 15.7 15.4 14.4 92 0.8 ESE 9 20 5 11 1015.7 1011.1 5.8
07/02:30am 15.8 15.8 14.3 91 0.9 ESE 7 15 4 8 1016.0 1011.3 5.8
07/02:00am 15.9 15.7 14.6 92 0.8 ESE 9 17 5 9 1015.8 1011.2 5.8
07/01:30am 15.9 15.7 14.7 93 0.7 ESE 9 26 5 14 1015.7 1011.1 5.8
07/01:00am 16.1 15.6 14.9 93 0.7 ESE 11 22 6 12 1016.0 1011.3 5.8
07/12:30am 16.1 16.4 15.1 94 0.6 ESE 7 17 4 9 1016.6 1012.0 5.8
07/12:00am 16.1 16.1 15.3 95 0.5 SE 9 19 5 10 1016.9 1012.3 5.8
 
Date/Time
EST
Temp
°C
App
Temp
°C
Dew
Point
Rel
Hum
%
Delta-T
°C
Wind Press
QNH
hPa
Press
MSL
hPa
Rain
since 9 am
mm
Dir
 
Spd
km/h
Gust
km/h
Spd
kts
Gust
kts
06/11:30pm 16.4 17.2 15.9 97 0.3 SE 6 13 3 7 1017.2 1012.5 5.6
06/11:00pm 16.7 16.5 15.7 94 0.6 SE 11 22 6 12 1017.5 1012.8 5.6
06/10:30pm 16.5 16.7 15.8 96 0.4 ESE 9 20 5 11 1017.3 1012.6 5.6
06/10:00pm 16.7 16.2 15.9 95 0.5 ESE 13 22 7 12 1017.4 1012.7 5.6
06/09:30pm 16.8 17.1 16.0 95 0.5 ESE 9 20 5 11 1017.4 1012.7 5.4
06/09:00pm 16.7 16.7 16.2 97 0.3 ESE 11 22 6 12 1017.2 1012.5 5.2
06/08:30pm 17.0 17.0 16.2 95 0.5 ESE 11 22 6 12 1016.7 1012.1 5.2
06/08:00pm 17.1 18.0 16.6 97 0.3 E 7 20 4 11 1016.5 1011.9 5.2
06/07:30pm 17.2 17.7 16.6 96 0.4 ESE 9 19 5 10 1016.0 1011.3 5.0
06/07:00pm 17.2 17.4 16.7 97 0.3 ESE 11 20 6 11 1015.8 1011.2 4.8
06/06:30pm 17.3 18.2 16.5 95 0.5 E 7 19 4 10 1015.4 1010.7 4.6
06/06:00pm 17.4 17.9 16.6 95 0.5 ESE 9 24 5 13 1015.3 1010.6 4.4
06/05:30pm 17.5 18.1 16.7 95 0.5 ESE 9 19 5 10 1015.2 1010.5 3.8

Other Formats:

Comma delimited format used in spreadsheet applications
http://www.bom.gov.au/fwo/IDQ60801/IDQ60801.94553.axf

JavaScript Object Notation format (JSON) in row-major order
http://www.bom.gov.au/fwo/IDQ60801/IDQ60801.94553.json